Time;durP1;ratioP1;P1;durP2;ratioP2;P2;SDS_P1;SDS_P2;PMS_P1;PMS_P2;Temp;Humidity;BMP_temperature;BMP_pressure;BME280_temperature;BME280_humidity;BME280_pressure;Samples;Min_cycle;Max_cycle;Signal;HPM_P1;HPM_P2
2021/09/11 00:01:48;;;;;;;8.57;7.13;;;12.10;99.90;11.50;96957.00;;;;5072940;28;20215;-69
2021/09/11 00:04:45;;;;;;;9.80;8.97;;;12.00;99.90;11.20;96957.00;;;;5071393;28;20229;-68
2021/09/11 00:07:34;;;;;;;9.97;8.33;;;11.70;99.90;11.50;96957.00;;;;5085180;28;20207;-69
2021/09/11 00:10:23;;;;;;;6.77;6.13;;;11.70;99.90;11.40;96963.00;;;;5084000;28;20619;-69
2021/09/11 00:13:11;;;;;;;8.53;7.73;;;11.60;99.90;11.20;96960.00;;;;5085348;28;20207;-69
2021/09/11 00:16:01;;;;;;;8.37;7.57;;;11.60;99.90;11.10;96959.00;;;;5085407;28;20199;-69
2021/09/11 00:18:49;;;;;;;8.67;7.43;;;11.50;99.90;11.00;96956.00;;;;5069831;28;20206;-69
2021/09/11 00:21:40;;;;;;;8.80;7.90;;;11.40;99.90;11.10;96951.00;;;;5070136;28;20580;-68
2021/09/11 00:24:29;;;;;;;9.07;8.17;;;11.40;99.90;11.40;96954.00;;;;5065137;28;20214;-70
2021/09/11 00:27:18;;;;;;;10.17;8.20;;;11.40;99.90;11.60;96951.00;;;;5063512;28;20685;-69
2021/09/11 00:30:08;;;;;;;10.70;8.97;;;11.40;99.90;11.60;96951.00;;;;5065067;28;20200;-68
2021/09/11 00:32:57;;;;;;;9.30;8.40;;;11.50;99.90;11.60;96947.00;;;;5064155;28;20224;-69
2021/09/11 00:35:45;;;;;;;8.97;7.47;;;11.60;99.90;11.40;96948.00;;;;5063255;28;20204;-69
2021/09/11 00:38:36;;;;;;;8.13;7.33;;;11.50;99.90;11.00;96938.00;;;;5062747;28;20219;-70
2021/09/11 00:41:24;;;;;;;10.00;7.67;;;11.40;99.90;10.80;96937.00;;;;5064256;28;20226;-69
2021/09/11 00:44:13;;;;;;;10.03;9.03;;;11.30;99.90;11.00;96946.00;;;;5063749;28;20211;-69
2021/09/11 00:47:02;;;;;;;8.70;7.90;;;11.30;99.90;11.10;96948.00;;;;5063896;28;20590;-69
2021/09/11 00:49:51;;;;;;;9.33;8.10;;;11.30;99.90;11.10;96946.00;;;;5072291;28;20195;-69
2021/09/11 00:52:43;;;;;;;10.07;8.67;;;11.20;99.90;11.30;96950.00;;;;5065357;28;20328;-68
2021/09/11 00:55:33;;;;;;;10.10;8.33;;;11.30;99.90;11.20;96949.00;;;;5076178;28;20601;-69
2021/09/11 00:58:22;;;;;;;8.90;8.00;;;11.30;99.90;11.20;96948.00;;;;5063877;28;20784;-69
2021/09/11 01:01:11;;;;;;;9.43;7.73;;;11.30;99.90;11.30;96941.00;;;;5062247;28;20228;-68
2021/09/11 01:04:00;;;;;;;8.27;7.47;;;11.30;99.90;11.40;96947.00;;;;5063818;28;20204;-68
2021/09/11 01:06:49;;;;;;;11.30;8.10;;;11.30;99.90;11.30;96943.00;;;;5064156;28;20207;-69
2021/09/11 01:09:38;;;;;;;13.23;9.07;;;11.30;99.90;11.00;96950.00;;;;5064124;28;20250;-69
2021/09/11 01:12:29;;;;;;;10.20;8.83;;;11.30;99.90;11.10;96941.00;;;;5064062;28;20746;-69
2021/09/11 01:15:18;;;;;;;8.57;7.77;;;11.30;99.90;11.20;96946.00;;;;5064577;28;20693;-68
2021/09/11 01:18:08;;;;;;;8.77;8.03;;;11.20;99.90;11.00;96945.00;;;;5063154;28;20579;-67
2021/09/11 01:20:58;;;;;;;9.43;8.63;;;11.20;99.90;10.90;96933.00;;;;5064587;28;20231;-69
2021/09/11 01:23:48;;;;;;;9.50;7.53;;;11.10;99.90;10.80;96932.00;;;;5071616;28;20215;-69
2021/09/11 01:26:37;;;;;;;9.53;7.63;;;11.10;99.90;10.70;96938.00;;;;5063289;28;20223;-68
2021/09/11 01:29:26;;;;;;;10.47;7.70;;;11.00;99.90;10.80;96944.00;;;;5064652;28;20215;-69
2021/09/11 01:32:15;;;;;;;9.87;8.90;;;10.90;99.90;10.80;96939.00;;;;5064508;28;20236;-69
2021/09/11 01:35:06;;;;;;;8.67;7.77;;;10.90;99.90;10.90;96939.00;;;;5064232;28;20212;-69
2021/09/11 01:37:55;;;;;;;10.47;9.47;;;11.00;99.90;11.00;96936.00;;;;5062977;28;20226;-69
2021/09/11 01:40:45;;;;;;;9.40;8.40;;;11.00;99.90;11.10;96940.00;;;;5066441;28;20563;-69
2021/09/11 01:43:35;;;;;;;9.83;8.93;;;11.00;99.90;10.80;96936.00;;;;5066853;28;20215;-69
2021/09/11 01:46:24;;;;;;;12.40;8.27;;;11.00;99.90;10.90;96936.00;;;;5067629;28;20204;-67
2021/09/11 01:49:12;;;;;;;13.43;8.53;;;11.00;99.90;10.70;96926.00;;;;5070622;28;20207;-69
2021/09/11 01:52:01;;;;;;;9.13;8.23;;;9.20;99.90;10.50;96928.00;;;;5069740;28;20227;-69
2021/09/11 01:54:51;;;;;;;8.63;7.77;;;10.90;99.90;10.30;96939.00;;;;5067003;28;20674;-70
2021/09/11 01:57:43;;;;;;;11.63;9.13;;;10.70;99.90;10.40;96930.00;;;;5066521;28;20200;-68
2021/09/11 02:00:32;;;;;;;9.87;8.97;;;10.70;99.90;10.40;96924.00;;;;5067369;28;20207;-69
2021/09/11 02:03:21;;;;;;;10.77;9.67;;;10.70;99.90;10.60;96933.00;;;;5079955;28;20206;-67
2021/09/11 02:06:10;;;;;;;10.97;9.87;;;10.70;99.90;10.80;96930.00;;;;5072998;28;20474;-68
2021/09/11 02:08:59;;;;;;;10.17;9.17;;;10.70;99.90;10.80;96927.00;;;;5067433;28;20211;-68
2021/09/11 02:11:48;;;;;;;9.20;8.30;;;10.80;99.90;10.60;96923.00;;;;5066621;28;20231;-69
2021/09/11 02:14:38;;;;;;;10.07;8.97;;;10.70;99.90;10.50;96930.00;;;;5069792;28;20211;-69
2021/09/11 02:17:27;;;;;;;11.53;9.10;;;10.70;99.90;10.30;96932.00;;;;5070763;28;20208;-69
2021/09/11 02:20:16;;;;;;;9.73;8.73;;;10.70;99.90;10.20;96923.00;;;;5078533;28;20210;-69
2021/09/11 02:23:05;;;;;;;8.97;8.00;;;10.60;99.90;10.20;96918.00;;;;5089246;28;20204;-68
2021/09/11 02:25:54;;;;;;;9.07;8.30;;;10.60;99.90;10.30;96926.00;;;;5070375;28;20215;-69
2021/09/11 02:28:43;;;;;;;14.53;9.47;;;10.50;99.90;10.30;96926.00;;;;5065449;28;20781;-68
2021/09/11 02:31:34;;;;;;;8.93;8.03;;;10.50;99.90;10.30;96919.00;;;;5066919;28;20677;-67
2021/09/11 02:34:23;;;;;;;10.23;8.80;;;10.50;99.90;10.40;96925.00;;;;5066641;28;20232;-68
2021/09/11 02:37:12;;;;;;;10.87;8.87;;;10.50;99.90;10.40;96929.00;;;;5066357;28;20222;-69
2021/09/11 02:40:00;;;;;;;10.27;9.30;;;10.50;99.90;10.20;96923.00;;;;5066243;28;20206;-69
2021/09/11 02:42:49;;;;;;;10.53;9.50;;;10.50;99.90;10.10;96924.00;;;;5067046;28;20212;-69
2021/09/11 02:45:39;;;;;;;9.33;8.43;;;10.40;99.90;9.90;96921.00;;;;5066029;28;20204;-67
2021/09/11 02:48:29;;;;;;;8.93;8.03;;;10.30;99.90;9.90;96929.00;;;;5066274;28;20211;-70
2021/09/11 02:51:18;;;;;;;10.93;9.33;;;10.20;99.90;9.70;96919.00;;;;5064487;28;20238;-68
2021/09/11 02:54:07;;;;;;;9.30;8.40;;;10.10;99.90;9.70;96919.00;;;;5066867;28;20231;-70
2021/09/11 02:56:56;;;;;;;12.30;10.03;;;10.10;99.90;9.80;96912.00;;;;5065221;28;20781;-69
2021/09/11 02:59:44;;;;;;;11.50;9.27;;;10.10;99.90;10.00;96921.00;;;;5066448;28;20712;-69
2021/09/11 03:02:33;;;;;;;12.10;10.80;;;10.20;99.90;10.00;96919.00;;;;5064635;28;20231;-67
2021/09/11 03:05:24;;;;;;;10.47;9.47;;;10.20;99.90;10.10;96920.00;;;;5066016;28;20200;-68
2021/09/11 03:08:14;;;;;;;10.37;8.97;;;10.30;99.90;10.10;96915.00;;;;5064665;28;20215;-68
2021/09/11 03:11:04;;;;;;;10.17;9.00;;;10.30;99.90;10.00;96916.00;;;;5066017;28;20227;-69
2021/09/11 03:13:53;;;;;;;11.10;9.93;;;10.30;99.90;10.00;96918.00;;;;5066180;28;20212;-69
2021/09/11 03:16:42;;;;;;;11.50;10.40;;;10.20;99.90;9.80;96927.00;;;;5066049;28;20208;-68
2021/09/11 03:19:32;;;;;;;10.30;9.30;;;10.20;99.90;10.00;96919.00;;;;5065704;28;20701;-68
2021/09/11 03:22:22;;;;;;;11.07;9.77;;;10.20;99.90;9.90;96924.00;;;;5077399;28;20215;-68
2021/09/11 03:25:12;;;;;;;12.37;9.30;;;10.20;99.90;10.00;96927.00;;;;5065543;28;20701;-70
2021/09/11 03:28:01;;;;;;;11.70;10.50;;;10.20;99.90;9.90;96918.00;;;;5065479;28;20291;-70
2021/09/11 03:30:50;;;;;;;10.47;9.47;;;10.20;99.90;9.80;96914.00;;;;5063988;28;20570;-69
2021/09/11 03:33:38;;;;;;;11.57;9.20;;;10.20;99.90;9.60;96916.00;;;;5065988;28;20231;-69
2021/09/11 03:36:27;;;;;;;13.70;9.80;;;10.10;99.90;9.60;96913.00;;;;5065289;28;20702;-70
2021/09/11 03:39:17;;;;;;;11.17;10.17;;;10.00;99.90;9.40;96909.00;;;;5065713;28;20214;-70
2021/09/11 03:42:07;;;;;;;11.30;10.07;;;10.00;99.90;9.50;96914.00;;;;5065326;28;20223;-69
2021/09/11 03:44:55;;;;;;;10.50;9.27;;;9.90;99.90;9.80;96913.00;;;;5065460;28;20192;-69
2021/09/11 03:47:45;;;;;;;10.43;9.40;;;9.90;99.90;9.80;96907.00;;;;5064543;28;20222;-69
2021/09/11 03:50:33;;;;;;;13.03;11.10;;;10.00;99.90;9.60;96903.00;;;;5091017;28;20693;-68
2021/09/11 03:53:24;;;;;;;10.87;9.87;;;9.90;99.90;9.40;96918.00;;;;5070697;28;20215;-69
2021/09/11 03:56:14;;;;;;;11.37;8.83;;;8.20;99.90;9.20;96913.00;;;;5066165;28;20203;-70
2021/09/11 03:59:03;;;;;;;11.73;9.43;;;9.80;99.90;9.30;96912.00;;;;5077870;28;20207;-70
2021/09/11 04:01:52;;;;;;;11.27;10.17;;;9.70;99.90;9.40;96918.00;;;;5063927;28;20228;-68
2021/09/11 04:04:41;;;;;;;15.90;10.40;;;9.80;99.90;9.50;96920.00;;;;5065488;28;20214;-70
2021/09/11 04:07:30;;;;;;;12.93;11.70;;;9.80;99.90;9.60;96917.00;;;;5064211;28;20534;-70
2021/09/11 04:10:19;;;;;;;13.03;10.10;;;9.80;99.90;9.40;96931.00;;;;5065103;28;20211;-69
2021/09/11 04:13:09;;;;;;;10.87;9.97;;;9.80;99.90;9.30;96917.00;;;;5065336;28;20326;-69
2021/09/11 04:15:58;;;;;;;13.13;10.20;;;9.70;99.90;9.40;96914.00;;;;5077198;28;20776;-70
2021/09/11 04:18:47;;;;;;;11.37;10.17;;;9.70;99.90;9.40;96920.00;;;;5077841;28;20199;-70
2021/09/11 04:21:36;;;;;;;12.13;11.00;;;9.80;99.90;9.70;96918.00;;;;5094083;28;20230;-70
2021/09/11 04:24:24;;;;;;;13.50;11.50;;;9.80;99.90;9.70;96919.00;;;;5070513;28;20686;-70
2021/09/11 04:27:14;;;;;;;12.07;10.50;;;9.90;99.90;9.80;96929.00;;;;5079297;28;20203;-69
2021/09/11 04:30:06;;;;;;;11.80;10.60;;;9.90;99.90;10.00;96930.00;;;;5068103;28;20229;-70
2021/09/11 04:32:56;;;;;;;11.97;10.63;;;10.00;99.90;9.90;96931.00;;;;5081821;28;20599;-69
2021/09/11 04:35:44;;;;;;;12.40;10.50;;;10.00;99.90;9.90;96937.00;;;;5085171;28;20693;-69
2021/09/11 04:38:33;;;;;;;10.63;9.53;;;10.00;99.90;9.60;96923.00;;;;5073141;28;20246;-70
2021/09/11 04:41:22;;;;;;;11.33;10.13;;;10.00;99.90;9.80;96931.00;;;;5076608;28;20227;-69
2021/09/11 04:44:11;;;;;;;10.60;9.53;;;10.00;99.90;9.90;96931.00;;;;5066989;28;20494;-70
2021/09/11 04:47:01;;;;;;;12.53;10.97;;;10.00;99.90;10.20;96936.00;;;;5077641;28;20203;-70
2021/09/11 04:49:50;;;;;;;12.85;11.60;;;10.10;99.90;10.40;96933.00;;;;5082285;28;20230;-68
2021/09/11 04:52:39;;;;;;;11.17;9.87;;;10.20;99.90;10.30;96942.00;;;;5064902;28;20231;-70
2021/09/11 04:55:28;;;;;;;11.23;9.93;;;10.30;99.90;9.80;96947.00;;;;5070861;28;20681;-69
2021/09/11 04:58:17;;;;;;;11.50;9.63;;;10.20;99.90;9.70;96940.00;;;;5084080;28;20202;-70
2021/09/11 05:01:05;;;;;;;10.37;9.40;;;10.10;99.90;9.70;96939.00;;;;5065034;28;20231;-70
2021/09/11 05:03:56;;;;;;;10.63;9.47;;;10.10;99.90;9.80;96928.00;;;;5080381;28;20278;-69
2021/09/11 05:06:45;;;;;;;12.07;10.43;;;10.00;99.90;10.00;96941.00;;;;5078710;28;20203;-69
2021/09/11 05:09:34;;;;;;;10.70;9.53;;;10.10;99.90;9.80;96936.00;;;;5072848;28;20208;-69
2021/09/11 05:12:23;;;;;;;12.07;10.47;;;10.20;99.90;10.00;96927.00;;;;5083182;28;20223;-69
2021/09/11 05:15:12;;;;;;;11.40;10.23;;;10.20;99.90;10.10;96937.00;;;;5082661;28;20547;-69
2021/09/11 05:18:01;;;;;;;10.83;9.33;;;10.20;99.90;10.30;96924.00;;;;5083812;28;20573;-70
2021/09/11 05:20:51;;;;;;;14.13;11.00;;;10.30;99.90;10.30;96935.00;;;;5093371;28;20199;-70
2021/09/11 05:23:40;;;;;;;11.07;9.97;;;10.40;99.90;10.20;96936.00;;;;5076328;28;20196;-70
2021/09/11 05:26:29;;;;;;;10.90;9.80;;;10.40;99.90;10.20;96942.00;;;;5067595;28;20927;-69
2021/09/11 05:29:18;;;;;;;13.00;9.87;;;10.40;99.90;10.50;96937.00;;;;5084877;28;20592;-69
2021/09/11 05:32:08;;;;;;;10.00;9.00;;;10.50;99.90;10.60;96947.00;;;;5077269;28;20226;-70
2021/09/11 05:34:57;;;;;;;10.53;9.47;;;10.60;99.90;10.50;96938.00;;;;5076598;28;20302;-70
2021/09/11 05:37:47;;;;;;;10.47;9.27;;;10.60;99.90;10.60;96954.00;;;;5080966;28;20203;-70
2021/09/11 05:40:36;;;;;;;12.03;10.23;;;10.70;99.90;10.60;96948.00;;;;5086878;28;20655;-70
2021/09/11 05:43:24;;;;;;;9.10;8.13;;;10.80;99.90;10.80;96947.00;;;;5083727;28;20202;-70
2021/09/11 05:46:13;;;;;;;10.73;9.67;;;10.80;99.90;11.00;96950.00;;;;5072162;28;20335;-69
2021/09/11 05:49:02;;;;;;;14.93;8.43;;;10.90;99.90;10.90;96937.00;;;;5085006;28;20200;-70
2021/09/11 05:51:51;;;;;;;11.63;8.97;;;11.00;99.90;11.10;96950.00;;;;5073825;28;20613;-71
2021/09/11 05:54:41;;;;;;;9.33;8.40;;;11.10;99.90;11.20;96952.00;;;;5070748;28;20575;-70
2021/09/11 05:57:30;;;;;;;9.97;9.17;;;11.10;99.90;11.50;96947.00;;;;5077700;28;20199;-70
2021/09/11 06:00:19;;;;;;;9.97;8.97;;;11.30;99.90;11.60;96950.00;;;;5072368;28;20214;-71
2021/09/11 06:03:08;;;;;;;9.23;8.30;;;11.50;99.90;11.60;96943.00;;;;5069927;28;20666;-70
2021/09/11 06:05:57;;;;;;;10.40;8.40;;;11.60;99.90;11.60;96945.00;;;;5085981;28;20705;-70
2021/09/11 06:08:46;;;;;;;9.00;8.20;;;11.70;99.90;11.80;96943.00;;;;5068666;28;20222;-70
2021/09/11 06:11:36;;;;;;;10.37;9.00;;;11.70;99.90;12.10;96952.00;;;;5072045;28;20231;-70
2021/09/11 06:14:25;;;;;;;13.63;8.87;;;11.90;99.90;12.20;96958.00;;;;5089530;28;20227;-71
2021/09/11 06:17:14;;;;;;;16.07;9.17;;;12.00;99.90;12.30;96949.00;;;;5078488;28;20203;-71
2021/09/11 06:20:04;;;;;;;11.20;8.53;;;12.20;99.90;12.30;96948.00;;;;5083126;28;20203;-70
2021/09/11 06:22:52;;;;;;;11.03;8.60;;;12.20;99.90;12.40;96950.00;;;;5084449;28;20212;-70
2021/09/11 06:25:41;;;;;;;11.23;9.23;;;12.30;99.90;12.60;96947.00;;;;5077453;28;20577;-70
2021/09/11 06:28:32;;;;;;;12.67;8.90;;;12.40;99.90;12.50;96949.00;;;;5087509;28;20191;-70
2021/09/11 06:31:21;;;;;;;9.27;7.70;;;12.50;99.90;12.70;96952.00;;;;5081098;28;20224;-70
2021/09/11 06:34:10;;;;;;;8.87;8.03;;;12.60;99.90;13.00;96948.00;;;;5067752;28;20228;-71
2021/09/11 06:36:58;;;;;;;9.80;8.53;;;12.70;99.90;13.20;96953.00;;;;5067873;28;20235;-71
2021/09/11 06:39:47;;;;;;;10.13;7.80;;;12.90;99.90;13.40;96950.00;;;;5085129;28;20223;-70
2021/09/11 06:42:36;;;;;;;8.80;7.50;;;13.10;99.90;14.00;96953.00;;;;5085839;28;20234;-71
2021/09/11 06:45:26;;;;;;;9.73;7.10;;;13.40;99.90;14.40;96951.00;;;;5070725;28;20200;-70
2021/09/11 06:48:15;;;;;;;7.70;6.77;;;13.60;99.90;14.90;96957.00;;;;5067226;28;20216;-71
2021/09/11 06:51:04;;;;;;;10.00;7.10;;;13.90;99.90;15.30;96952.00;;;;5095202;28;20223;-71
2021/09/11 06:53:53;;;;;;;9.30;7.53;;;14.30;99.90;15.50;96948.00;;;;5073816;28;20226;-71
2021/09/11 06:56:42;;;;;;;6.83;6.17;;;14.60;99.90;15.80;96944.00;;;;5074811;28;20721;-71
2021/09/11 06:59:31;;;;;;;7.80;7.00;;;14.90;99.90;16.00;96949.00;;;;5087682;28;20208;-71
2021/09/11 07:02:21;;;;;;;11.07;6.80;;;15.20;99.90;16.20;96956.00;;;;5065979;28;20388;-70
2021/09/11 07:05:11;;;;;;;7.03;6.20;;;15.50;99.90;16.50;96954.00;;;;5066920;28;20204;-71
2021/09/11 07:08:00;;;;;;;7.00;5.67;;;15.70;99.90;16.60;96956.00;;;;5066509;28;20207;-71
2021/09/11 07:10:49;;;;;;;6.20;5.60;;;15.90;99.90;16.90;96965.00;;;;5066059;28;20208;-71
2021/09/11 07:13:38;;;;;;;7.23;6.47;;;16.10;99.90;17.00;96958.00;;;;5074913;28;20598;-72
2021/09/11 07:16:27;;;;;;;6.00;5.20;;;16.30;99.90;17.20;96967.00;;;;5073210;28;20690;-71
2021/09/11 07:19:17;;;;;;;9.07;5.90;;;16.50;99.90;17.40;96962.00;;;;5074071;28;20564;-70
2021/09/11 07:22:06;;;;;;;7.77;6.60;;;16.70;99.90;17.40;96967.00;;;;5077626;28;20234;-72
2021/09/11 07:24:55;;;;;;;11.33;5.97;;;16.80;99.90;17.50;96975.00;;;;5080656;28;20599;-71
2021/09/11 07:27:44;;;;;;;6.83;5.47;;;17.00;99.90;17.80;96973.00;;;;5079703;28;20675;-71
2021/09/11 07:30:35;;;;;;;7.77;6.03;;;17.20;99.90;17.90;96973.00;;;;5067183;28;20447;-71
2021/09/11 07:33:24;;;;;;;6.73;5.90;;;17.30;99.90;18.10;96976.00;;;;5065672;28;20239;-71
2021/09/11 07:36:14;;;;;;;6.60;4.90;;;17.40;99.90;18.20;96980.00;;;;5080579;28;20223;-72
2021/09/11 07:39:03;;;;;;;7.60;5.80;;;17.60;99.90;18.50;96985.00;;;;5064901;28;20675;-70
2021/09/11 07:41:52;;;;;;;8.40;6.00;;;17.70;99.90;18.60;96983.00;;;;5066530;28;20243;-71
2021/09/11 07:44:41;;;;;;;11.53;6.30;;;17.90;99.90;18.80;96979.00;;;;5066340;28;20587;-70
2021/09/11 07:47:30;;;;;;;7.60;5.67;;;18.00;99.90;18.90;96976.00;;;;5085457;28;20207;-70
2021/09/11 07:50:25;;;;;;;7.17;4.83;;;18.20;99.90;19.10;96979.00;;;;5083474;28;20226;-71
2021/09/11 07:53:16;;;;;;;9.67;5.57;;;18.40;99.90;19.30;96980.00;;;;5074353;28;20424;-70
2021/09/11 07:56:05;;;;;;;5.97;5.37;;;18.50;99.90;19.40;96985.00;;;;5076273;28;20203;-71
2021/09/11 07:58:54;;;;;;;6.03;5.30;;;18.70;99.90;19.60;96989.00;;;;5072367;28;20211;-70
2021/09/11 08:01:43;;;;;;;7.83;5.33;;;18.80;99.90;19.70;96992.00;;;;5069986;28;20597;-70
2021/09/11 08:04:31;;;;;;;8.33;5.20;;;19.00;99.90;19.90;96981.00;;;;5067152;28;20196;-71
2021/09/11 08:07:25;;;;;;;5.63;5.13;;;19.20;99.90;19.90;96988.00;;;;5067808;28;20208;-71
2021/09/11 08:10:16;;;;;;;6.43;5.83;;;19.30;99.90;20.20;96997.00;;;;5082442;28;20214;-71
2021/09/11 08:13:05;;;;;;;10.37;7.67;;;19.50;99.90;20.60;96993.00;;;;5081096;28;20219;-71
2021/09/11 08:15:54;;;;;;;8.97;8.07;;;19.70;99.90;20.80;96999.00;;;;5092249;28;20230;-70
2021/09/11 08:18:42;;;;;;;5.70;4.80;;;19.80;99.90;20.90;96989.00;;;;5066384;28;20204;-71
2021/09/11 08:21:31;;;;;;;6.87;5.07;;;20.00;99.90;21.00;96998.00;;;;5072042;28;20694;-71
2021/09/11 08:24:20;;;;;;;6.03;4.03;;;20.30;99.90;21.20;96996.00;;;;5082987;28;20207;-71
2021/09/11 08:27:11;;;;;;;7.77;4.97;;;20.40;99.90;21.40;96996.00;;;;5065520;28;20223;-71
2021/09/11 08:29:59;;;;;;;5.50;5.00;;;20.50;99.90;21.60;97004.00;;;;5065587;28;20648;-71
2021/09/11 08:32:48;;;;;;;8.50;4.13;;;20.70;99.90;21.70;97008.00;;;;5076107;28;20219;-72
2021/09/11 08:35:37;;;;;;;5.27;4.77;;;20.90;99.90;21.90;96991.00;;;;5079766;28;20219;-71
2021/09/11 08:38:27;;;;;;;5.20;4.57;;;21.10;99.90;22.20;96999.00;;;;5081400;28;20214;-69
2021/09/11 08:41:16;;;;;;;4.83;4.27;;;21.20;99.90;22.10;96997.00;;;;5080604;28;20230;-70
2021/09/11 08:44:06;;;;;;;5.17;4.20;;;21.40;99.90;22.50;96991.00;;;;5074445;28;20200;-73
2021/09/11 08:46:55;;;;;;;5.63;4.70;;;21.60;99.90;22.70;96990.00;;;;5081075;28;20207;-71
2021/09/11 08:49:44;;;;;;;5.53;4.70;;;21.80;99.90;22.80;96989.00;;;;5073183;28;20218;-69
2021/09/11 08:52:35;;;;;;;6.50;4.63;;;21.90;99.90;23.00;96990.00;;;;5083753;28;20231;-69
2021/09/11 08:55:24;;;;;;;5.97;4.37;;;22.10;99.90;23.20;96990.00;;;;5087157;28;20678;-69
2021/09/11 08:58:13;;;;;;;4.90;4.40;;;22.30;99.90;23.40;96987.00;;;;5068394;28;20211;-70
2021/09/11 09:01:04;;;;;;;6.67;4.10;;;22.40;99.90;23.50;96984.00;;;;5091002;28;20689;-70
2021/09/11 09:03:53;;;;;;;5.43;4.00;;;22.60;99.90;23.80;97002.00;;;;5070793;28;20214;-71
2021/09/11 09:06:44;;;;;;;6.93;4.07;;;22.80;99.90;23.60;96990.00;;;;5071394;28;20752;-68
2021/09/11 09:09:41;;;;;;;4.57;4.17;;;22.90;98.30;24.10;96986.00;;;;5084050;28;20662;-69
2021/09/11 09:12:34;;;;;;;10.20;5.93;;;23.10;99.10;24.20;96986.00;;;;5069852;28;20223;-74
2021/09/11 09:15:24;;;;;;;7.50;4.57;;;23.30;98.50;24.50;96988.00;;;;5077714;28;20227;-74
2021/09/11 09:18:17;;;;;;;5.73;4.40;;;23.40;98.10;24.50;96978.00;;;;5085048;28;20711;-69
2021/09/11 09:21:20;;;;;;;5.73;4.30;;;23.60;95.80;24.50;96974.00;;;;5082447;28;20219;-69
2021/09/11 09:24:12;;;;;;;4.53;4.10;;;23.80;94.90;24.90;96972.00;;;;5070240;28;20241;-69
2021/09/11 09:27:04;;;;;;;6.80;5.00;;;23.90;95.20;25.20;96971.00;;;;5069845;28;20556;-72
2021/09/11 09:30:01;;;;;;;5.57;3.73;;;24.10;95.50;25.40;96960.00;;;;5070194;28;20200;-69
2021/09/11 09:32:52;;;;;;;5.97;3.90;;;24.30;94.60;25.50;96964.00;;;;5069320;28;20224;-70
2021/09/11 09:35:42;;;;;;;5.90;4.57;;;24.50;92.50;25.60;96959.00;;;;5070411;28;20228;-69
2021/09/11 09:38:31;;;;;;;6.87;4.23;;;24.60;91.50;25.90;96966.00;;;;5081916;28;20215;-71
2021/09/11 09:41:20;;;;;;;4.47;4.03;;;24.90;91.30;26.10;96969.00;;;;5070114;28;20223;-69
2021/09/11 09:44:09;;;;;;;5.93;3.30;;;25.10;91.00;26.20;96969.00;;;;5069256;28;20208;-69
2021/09/11 09:46:59;;;;;;;6.17;4.00;;;25.20;88.80;26.40;96970.00;;;;5078967;28;20206;-69
2021/09/11 09:50:05;;;;;;;4.43;4.03;;;25.40;89.10;26.20;96959.00;;;;5085521;28;20211;-69
2021/09/11 09:52:56;;;;;;;4.37;3.97;;;25.60;85.50;26.70;96963.00;;;;5079479;28;20223;-69
2021/09/11 09:55:45;;;;;;;6.27;3.77;;;25.60;86.00;26.60;96961.00;;;;5086527;28;20231;-69
2021/09/11 09:58:35;;;;;;;4.27;3.83;;;25.70;85.50;26.80;96954.00;;;;5086236;28;20788;-69
2021/09/11 10:01:24;;;;;;;7.33;4.40;;;25.90;84.20;26.80;96964.00;;;;5082915;28;20724;-73
2021/09/11 10:04:17;;;;;;;4.00;3.70;;;26.00;83.00;27.00;96963.00;;;;5086739;28;20194;-72
2021/09/11 10:07:08;;;;;;;4.63;3.80;;;26.00;81.80;27.00;96952.00;;;;5083941;28;20208;-70
2021/09/11 10:09:59;;;;;;;4.03;3.73;;;26.10;81.10;27.20;96954.00;;;;5083538;28;20199;-70
2021/09/11 10:12:48;;;;;;;5.10;4.40;;;26.30;80.70;27.30;96954.00;;;;5075660;28;20589;-74
2021/09/11 10:15:52;;;;;;;6.47;4.20;;;26.30;77.70;27.30;96956.00;;;;5069290;28;20245;-71
2021/09/11 10:18:46;;;;;;;4.20;3.80;;;26.50;78.00;27.50;96950.00;;;;5068349;28;20274;-74
2021/09/11 10:21:38;;;;;;;7.03;4.27;;;26.60;77.60;27.60;96949.00;;;;5088693;28;20219;-72
2021/09/11 10:24:36;;;;;;;5.40;3.90;;;26.70;75.50;27.70;96944.00;;;;5085627;28;20850;-73
2021/09/11 10:27:36;;;;;;;6.00;4.30;;;26.80;72.50;26.50;96940.00;;;;5086462;28;20335;-72
2021/09/11 10:30:25;;;;;;;5.63;4.17;;;26.80;70.30;26.80;96940.00;;;;5079958;28;20212;-68
2021/09/11 10:33:40;;;;;;;6.03;4.10;;;26.60;71.60;27.90;96941.00;;;;5084359;28;20202;-72
2021/09/11 10:36:48;;;;;;;5.93;4.87;;;26.80;74.00;27.50;96936.00;;;;5068920;28;20694;-71
2021/09/11 10:39:37;;;;;;;4.80;4.03;;;26.90;72.50;27.50;96930.00;;;;5067662;28;20199;-70
2021/09/11 10:42:27;;;;;;;4.90;3.93;;;27.00;70.20;28.30;96929.00;;;;5072968;28;20752;-70
2021/09/11 10:45:16;;;;;;;8.13;4.03;;;27.10;72.10;28.50;96929.00;;;;5074925;28;20214;-70
2021/09/11 10:48:06;;;;;;;3.80;3.50;;;27.40;72.20;27.80;96920.00;;;;5085569;28;20207;-70
2021/09/11 10:50:55;;;;;;;4.27;3.80;;;27.50;68.70;27.40;96917.00;;;;5085539;28;20200;-70
2021/09/11 10:54:18;;;;;;;5.00;3.53;;;26.60;66.60;28.10;96934.00;;;;5083179;28;20223;-69
2021/09/11 10:57:14;;;;;;;5.93;3.70;;;27.50;67.90;29.10;96924.00;;;;5082535;28;20229;-71
2021/09/11 11:00:21;;;;;;;4.97;3.57;;;27.70;69.10;29.00;96912.00;;;;5082759;28;20581;-71
2021/09/11 11:03:19;;;;;;;5.32;4.30;;;28.20;65.40;29.30;96913.00;;;;5070079;28;20208;-70
2021/09/11 11:06:08;;;;;;;3.80;3.45;;;28.40;66.20;29.90;96911.00;;;;5083163;28;20198;-70
2021/09/11 11:08:59;;;;;;;4.25;3.65;;;28.70;65.20;29.00;96915.00;;;;5087464;28;20197;-70
2021/09/11 11:11:50;;;;;;;8.32;3.85;;;28.80;63.40;29.10;96900.00;;;;5072870;28;20232;-69
2021/09/11 11:14:45;;;;;;;4.68;3.53;;;28.80;61.20;29.30;96910.00;;;;5087395;28;20217;-69
2021/09/11 11:17:39;;;;;;;4.93;3.60;;;28.80;61.60;29.80;96903.00;;;;5086668;28;20210;-70
2021/09/11 11:20:29;;;;;;;5.97;3.90;;;28.90;60.50;29.90;96913.00;;;;5086709;28;20575;-69
2021/09/11 11:23:18;;;;;;;4.07;3.67;;;29.20;60.50;28.90;96894.00;;;;5074967;28;20607;-69
2021/09/11 11:26:07;;;;;;;3.83;3.53;;;29.30;59.40;28.90;96894.00;;;;5070594;28;20223;-69
2021/09/11 11:28:57;;;;;;;4.97;3.95;;;29.40;58.70;29.50;96893.00;;;;5068515;28;20204;-69
2021/09/11 11:31:47;;;;;;;7.47;4.07;;;29.10;60.60;27.90;96883.00;;;;5087060;28;20233;-69
2021/09/11 11:34:38;;;;;;;5.90;3.50;;;29.00;58.20;30.00;96882.00;;;;5088389;28;20215;-70
2021/09/11 11:37:29;;;;;;;4.15;3.75;;;29.00;59.40;30.10;96885.00;;;;5069826;28;20676;-69
2021/09/11 11:40:18;;;;;;;6.70;4.00;;;29.30;59.40;30.50;96883.00;;;;5081573;28;20213;-70
2021/09/11 11:43:09;;;;;;;4.30;3.58;;;29.50;58.90;31.00;96878.00;;;;5073062;28;20203;-69
2021/09/11 11:45:58;;;;;;;3.90;3.40;;;29.80;58.00;30.20;96869.00;;;;5068010;28;20226;-70
2021/09/11 11:48:47;;;;;;;4.20;3.58;;;29.90;56.90;30.50;96874.00;;;;5084432;28;20705;-70
2021/09/11 11:51:38;;;;;;;4.55;4.05;;;30.10;57.70;31.00;96871.00;;;;5088889;28;20233;-70
2021/09/11 11:54:27;;;;;;;8.18;3.92;;;30.20;56.90;29.70;96866.00;;;;5066210;28;20206;-70
2021/09/11 11:57:19;;;;;;;3.90;3.60;;;30.10;55.70;28.70;96856.00;;;;5086257;28;20222;-70
2021/09/11 12:00:12;;;;;;;4.28;3.75;;;29.80;55.30;29.50;96863.00;;;;5081063;28;20203;-69
2021/09/11 12:03:02;;;;;;;4.22;3.58;;;29.50;56.10;30.80;96873.00;;;;5079493;28;20740;-70
2021/09/11 12:05:51;;;;;;;3.58;3.25;;;29.60;56.80;31.30;96871.00;;;;5081862;28;20210;-70
2021/09/11 12:08:41;;;;;;;3.72;3.40;;;29.90;56.50;31.00;96858.00;;;;5079135;28;20223;-69
2021/09/11 12:11:30;;;;;;;3.88;2.95;;;30.40;55.70;31.10;96858.00;;;;5084222;28;20728;-69
2021/09/11 12:14:20;;;;;;;5.47;3.47;;;30.60;54.60;31.40;96858.00;;;;5082328;28;20584;-70
2021/09/11 12:17:15;;;;;;;4.93;3.65;;;30.70;53.60;31.50;96853.00;;;;5083813;28;20372;-69
2021/09/11 12:20:15;;;;;;;7.57;3.90;;;30.80;53.10;32.10;96845.00;;;;5078890;28;20403;-67
2021/09/11 12:23:09;;;;;;;4.32;3.83;;;30.80;54.70;32.40;96854.00;;;;5078537;28;20407;-69
2021/09/11 12:26:03;;;;;;;7.00;3.72;;;30.90;54.80;32.50;96846.00;;;;5082648;28;20398;-68
2021/09/11 12:28:54;;;;;;;5.13;3.40;;;31.10;53.60;32.40;96845.00;;;;5083017;28;20203;-69
2021/09/11 12:31:54;;;;;;;3.65;3.35;;;31.20;53.40;31.30;96836.00;;;;5077002;28;20228;-69
2021/09/11 12:34:46;;;;;;;8.93;3.50;;;31.30;52.40;32.60;96835.00;;;;5073220;28;20214;-68